Time,TemperatureF,DewpointF,PressureIn,WindDirection,WindDirectionDegrees,WindSpeedMPH,WindSpeedGustMPH,Humidity,HourlyPrecipIn,Conditions,Clouds,dailyrainin,SoftwareType,DateUTC
2013-08-16 00:09:00,59.7,59.4,29.99,North,0,0.0,-999.0,99,-99.99,,,0.00,Acu-Link.com,2013-08-16 04:09:00,
2013-08-16 00:24:00,59.9,59.6,29.98,North,0,0.0,-999.0,99,-99.99,,,0.00,Acu-Link.com,2013-08-16 04:24:00,
2013-08-16 00:40:00,59.7,59.4,29.98,North,0,0.0,-999.0,99,-99.99,,,0.00,Acu-Link.com,2013-08-16 04:40:00,
2013-08-16 00:55:00,59.9,59.6,29.97,North,0,0.0,-999.0,99,-99.99,,,0.00,Acu-Link.com,2013-08-16 04:55:00,
2013-08-16 01:10:00,59.7,59.4,29.98,North,0,0.0,-999.0,99,-99.99,,,0.00,Acu-Link.com,2013-08-16 05:10:00,
2013-08-16 01:25:00,59.5,59.2,29.97,North,0,0.0,-999.0,99,-99.99,,,0.00,Acu-Link.com,2013-08-16 05:25:00,
2013-08-16 01:40:00,59.4,59.1,29.97,North,0,0.0,-999.0,99,-99.99,,,0.00,Acu-Link.com,2013-08-16 05:40:00,
2013-08-16 01:56:00,59.2,58.9,29.96,North,0,0.0,-999.0,99,-99.99,,,0.00,Acu-Link.com,2013-08-16 05:56:00,
2013-08-16 02:11:00,58.8,58.5,29.96,North,0,0.0,-999.0,99,-99.99,,,0.00,Acu-Link.com,2013-08-16 06:11:00,
2013-08-16 02:26:00,59.0,58.7,29.96,North,0,0.0,-999.0,99,-99.99,,,0.00,Acu-Link.com,2013-08-16 06:26:00,
2013-08-16 02:41:00,58.6,58.3,29.96,North,0,0.0,-999.0,99,-99.99,,,0.00,Acu-Link.com,2013-08-16 06:41:00,
2013-08-16 02:56:00,58.6,58.3,29.96,North,0,0.0,-999.0,99,-99.99,,,0.00,Acu-Link.com,2013-08-16 06:56:00,
2013-08-16 03:12:00,58.5,58.2,29.96,North,0,0.0,-999.0,99,-99.99,,,0.00,Acu-Link.com,2013-08-16 07:12:00,
2013-08-16 03:27:00,58.5,58.2,29.96,North,0,0.0,-999.0,99,-99.99,,,0.00,Acu-Link.com,2013-08-16 07:27:00,
2013-08-16 03:42:00,58.8,58.5,29.96,North,0,0.0,-999.0,99,-99.99,,,0.00,Acu-Link.com,2013-08-16 07:42:00,
2013-08-16 03:57:00,58.5,58.2,29.96,North,0,0.0,-999.0,99,-99.99,,,0.00,Acu-Link.com,2013-08-16 07:57:00,
2013-08-16 04:13:00,58.6,58.3,29.96,North,0,0.0,-999.0,99,-99.99,,,0.00,Acu-Link.com,2013-08-16 08:13:00,
2013-08-16 04:28:00,58.3,58.0,29.95,North,0,0.0,-999.0,99,-99.99,,,0.00,Acu-Link.com,2013-08-16 08:28:00,
2013-08-16 04:43:00,58.1,57.8,29.96,North,0,0.0,-999.0,99,-99.99,,,0.00,Acu-Link.com,2013-08-16 08:43:00,
2013-08-16 04:58:00,58.3,58.0,29.96,North,0,0.0,-999.0,99,-99.99,,,0.00,Acu-Link.com,2013-08-16 08:58:00,
2013-08-16 05:13:00,57.6,57.3,29.96,North,0,0.0,-999.0,99,-99.99,,,0.00,Acu-Link.com,2013-08-16 09:13:00,
2013-08-16 05:28:00,57.7,57.4,29.96,North,0,0.0,-999.0,99,-99.99,,,0.00,Acu-Link.com,2013-08-16 09:28:00,
2013-08-16 05:43:00,57.4,57.1,29.96,North,0,0.0,-999.0,99,-99.99,,,0.00,Acu-Link.com,2013-08-16 09:43:00,
2013-08-16 05:59:00,57.4,57.1,29.97,North,0,0.0,-999.0,99,-99.99,,,0.00,Acu-Link.com,2013-08-16 09:59:00,
2013-08-16 06:14:00,57.2,56.9,29.97,North,0,0.0,-999.0,99,-99.99,,,0.00,Acu-Link.com,2013-08-16 10:14:00,
2013-08-16 06:29:00,56.8,56.5,29.98,North,0,0.0,-999.0,99,-99.99,,,0.00,Acu-Link.com,2013-08-16 10:29:00,
2013-08-16 06:44:00,56.7,56.4,29.98,North,0,0.0,-999.0,99,-99.99,,,0.00,Acu-Link.com,2013-08-16 10:44:00,
2013-08-16 07:00:00,56.8,56.5,29.99,North,0,0.0,-999.0,99,-99.99,,,0.00,Acu-Link.com,2013-08-16 11:00:00,
2013-08-16 07:15:00,57.0,56.7,29.99,North,0,0.0,-999.0,99,-99.99,,,0.00,Acu-Link.com,2013-08-16 11:15:00,
2013-08-16 07:30:00,57.6,57.3,30.00,North,0,0.0,-999.0,99,-99.99,,,0.00,Acu-Link.com,2013-08-16 11:30:00,
2013-08-16 07:45:00,58.1,57.8,29.99,North,0,1.1,-999.0,99,-99.99,,,0.00,Acu-Link.com,2013-08-16 11:45:00,
2013-08-16 08:00:00,59.0,58.7,30.00,North,0,0.0,-999.0,99,-99.99,,,0.00,Acu-Link.com,2013-08-16 12:00:00,
2013-08-16 08:16:00,60.4,59.8,29.99,North,0,0.0,-999.0,98,-99.99,,,0.00,Acu-Link.com,2013-08-16 12:16:00,
2013-08-16 08:31:00,62.2,60.1,30.00,North,0,0.0,-999.0,93,-99.99,,,0.00,Acu-Link.com,2013-08-16 12:31:00,
2013-08-16 08:46:00,64.4,61.1,30.01,North,0,2.2,-999.0,89,-99.99,,,0.00,Acu-Link.com,2013-08-16 12:46:00,
2013-08-16 09:01:00,65.5,62.2,30.01,North,0,0.0,-999.0,89,-99.99,,,0.00,Acu-Link.com,2013-08-16 13:01:00,
2013-08-16 09:16:00,66.6,61.9,30.00,North,0,0.0,-999.0,85,-99.99,,,0.00,Acu-Link.com,2013-08-16 13:16:00,
2013-08-16 09:32:00,68.7,62.3,30.01,North,0,0.0,-999.0,80,-99.99,,,0.00,Acu-Link.com,2013-08-16 13:32:00,
2013-08-16 09:47:00,70.2,60.7,30.01,NNE,22,1.1,-999.0,72,-99.99,,,0.00,Acu-Link.com,2013-08-16 13:47:00,
2013-08-16 10:02:00,70.9,61.4,30.01,SSE,157,1.7,-999.0,72,-99.99,,,0.00,Acu-Link.com,2013-08-16 14:02:00,
2013-08-16 10:18:00,71.6,62.9,30.01,North,0,1.7,-999.0,74,-99.99,,,0.00,Acu-Link.com,2013-08-16 14:18:00,
2013-08-16 10:33:00,72.5,62.1,30.02,NNE,22,3.2,-999.0,70,-99.99,,,0.00,Acu-Link.com,2013-08-16 14:33:00,
2013-08-16 10:48:00,72.9,62.1,30.01,West,270,1.7,-999.0,69,-99.99,,,0.00,Acu-Link.com,2013-08-16 14:48:00,
2013-08-16 11:03:00,73.4,61.3,30.01,SSW,202,0.0,-999.0,66,-99.99,,,0.00,Acu-Link.com,2013-08-16 15:03:00,
2013-08-16 11:18:00,73.9,60.5,30.01,WSW,247,3.7,-999.0,63,-99.99,,,0.00,Acu-Link.com,2013-08-16 15:18:00,
2013-08-16 11:34:00,73.0,61.4,30.01,West,270,1.1,-999.0,67,-99.99,,,0.00,Acu-Link.com,2013-08-16 15:34:00,
2013-08-16 11:49:00,73.8,61.3,30.02,WNW,292,2.2,-999.0,65,-99.99,,,0.00,Acu-Link.com,2013-08-16 15:49:00,
2013-08-16 12:04:00,73.8,63.0,30.01,SE,135,0.0,-999.0,69,-99.99,,,0.00,Acu-Link.com,2013-08-16 16:04:00,
2013-08-16 12:19:00,73.0,60.5,30.02,WSW,247,0.0,-999.0,65,-99.99,,,0.00,Acu-Link.com,2013-08-16 16:19:00,
2013-08-16 12:34:00,72.7,60.7,30.01,North,0,0.0,-999.0,66,-99.99,,,0.00,Acu-Link.com,2013-08-16 16:34:00,
2013-08-16 12:50:00,72.3,60.7,30.00,North,0,2.7,-999.0,67,-99.99,,,0.00,Acu-Link.com,2013-08-16 16:50:00,
2013-08-16 13:05:00,73.6,61.5,29.99,North,0,2.2,-999.0,66,-99.99,,,0.00,Acu-Link.com,2013-08-16 17:05:00,
2013-08-16 13:20:00,73.8,62.1,29.99,East,90,0.0,-999.0,67,-99.99,,,0.00,Acu-Link.com,2013-08-16 17:20:00,
2013-08-16 13:35:00,73.6,61.5,30.00,WNW,292,2.2,-999.0,66,-99.99,,,0.00,Acu-Link.com,2013-08-16 17:35:00,
2013-08-16 13:50:00,73.8,63.0,29.99,NE,45,1.7,-999.0,69,-99.99,,,0.00,Acu-Link.com,2013-08-16 17:50:00,
2013-08-16 14:06:00,73.9,61.8,29.99,NW,315,5.3,-999.0,66,-99.99,,,0.00,Acu-Link.com,2013-08-16 18:06:00,
2013-08-16 14:21:00,74.8,60.4,30.00,NNE,22,2.2,-999.0,61,-99.99,,,0.00,Acu-Link.com,2013-08-16 18:21:00,
2013-08-16 14:36:00,73.4,61.3,29.99,ESE,112,1.1,-999.0,66,-99.99,,,0.00,Acu-Link.com,2013-08-16 18:36:00,
2013-08-16 14:51:00,72.7,61.1,29.98,NNE,22,2.2,-999.0,67,-99.99,,,0.00,Acu-Link.com,2013-08-16 18:51:00,
2013-08-16 15:07:00,72.5,62.1,29.98,SSE,157,0.0,-999.0,70,-99.99,,,0.00,Acu-Link.com,2013-08-16 19:07:00,
2013-08-16 15:22:00,72.5,62.1,29.98,West,270,1.7,-999.0,70,-99.99,,,0.00,Acu-Link.com,2013-08-16 19:22:00,
2013-08-16 15:37:00,72.5,62.1,29.99,NW,315,2.7,-999.0,70,-99.99,,,0.00,Acu-Link.com,2013-08-16 19:37:00,
2013-08-16 15:52:00,71.8,62.3,29.98,SSE,157,0.0,-999.0,72,-99.99,,,0.00,Acu-Link.com,2013-08-16 19:52:00,
2013-08-16 16:07:00,72.1,62.2,29.98,North,0,2.2,-999.0,71,-99.99,,,0.00,Acu-Link.com,2013-08-16 20:07:00,
2013-08-16 16:23:00,72.0,62.9,29.98,North,0,1.7,-999.0,73,-99.99,,,0.00,Acu-Link.com,2013-08-16 20:23:00,
2013-08-16 16:38:00,71.4,62.7,29.97,North,0,1.1,-999.0,74,-99.99,,,0.00,Acu-Link.com,2013-08-16 20:38:00,
2013-08-16 16:53:00,71.1,63.1,29.97,North,0,2.7,-999.0,76,-99.99,,,0.00,Acu-Link.com,2013-08-16 20:53:00,
2013-08-16 17:08:00,70.9,62.9,29.97,North,0,4.2,-999.0,76,-99.99,,,0.00,Acu-Link.com,2013-08-16 21:08:00,
2013-08-16 17:23:00,70.5,63.7,29.97,North,0,0.0,-999.0,79,-99.99,,,0.00,Acu-Link.com,2013-08-16 21:23:00,
2013-08-16 17:39:00,70.0,63.5,29.98,North,0,2.7,-999.0,80,-99.99,,,0.00,Acu-Link.com,2013-08-16 21:39:00,
2013-08-16 17:54:00,69.8,63.7,29.96,North,0,0.0,-999.0,81,-99.99,,,0.00,Acu-Link.com,2013-08-16 21:54:00,
2013-08-16 18:09:00,69.6,63.9,29.98,North,0,2.2,-999.0,82,-99.99,,,0.00,Acu-Link.com,2013-08-16 22:09:00,
2013-08-16 18:24:00,69.6,63.1,29.99,NNE,22,3.7,-999.0,80,-99.99,,,0.00,Acu-Link.com,2013-08-16 22:24:00,
2013-08-16 18:39:00,69.3,62.9,29.97,North,0,1.7,-999.0,80,-99.99,,,0.00,Acu-Link.com,2013-08-16 22:39:00,
2013-08-16 18:55:00,69.1,62.7,29.97,SSE,157,0.0,-999.0,80,-99.99,,,0.00,Acu-Link.com,2013-08-16 22:55:00,
2013-08-16 19:10:00,69.8,63.0,29.97,North,0,1.7,-999.0,79,-99.99,,,0.00,Acu-Link.com,2013-08-16 23:10:00,
2013-08-16 19:25:00,69.8,63.3,29.97,North,0,3.2,-999.0,80,-99.99,,,0.00,Acu-Link.com,2013-08-16 23:25:00,
2013-08-16 19:40:00,69.1,63.4,29.98,North,0,0.0,-999.0,82,-99.99,,,0.00,Acu-Link.com,2013-08-16 23:40:00,
2013-08-16 19:55:00,68.7,63.0,29.98,North,0,1.1,-999.0,82,-99.99,,,0.00,Acu-Link.com,2013-08-16 23:55:00,
2013-08-16 20:11:00,68.0,63.0,30.00,North,0,0.0,-999.0,84,-99.99,,,0.00,Acu-Link.com,2013-08-17 00:11:00,
2013-08-16 20:26:00,66.9,63.2,30.00,North,0,0.0,-999.0,88,-99.99,,,0.00,Acu-Link.com,2013-08-17 00:26:00,
2013-08-16 20:41:00,66.0,63.0,30.00,North,0,0.0,-999.0,90,-99.99,,,0.00,Acu-Link.com,2013-08-17 00:41:00,
2013-08-16 20:56:00,65.1,63.0,30.01,North,0,0.0,-999.0,93,-99.99,,,0.00,Acu-Link.com,2013-08-17 00:56:00,
2013-08-16 21:12:00,65.1,63.0,30.01,North,0,0.0,-999.0,93,-99.99,,,0.00,Acu-Link.com,2013-08-17 01:12:00,
2013-08-16 21:27:00,64.4,62.6,30.02,North,0,0.0,-999.0,94,-99.99,,,0.00,Acu-Link.com,2013-08-17 01:27:00,
2013-08-16 21:42:00,63.9,62.7,30.02,North,0,0.0,-999.0,96,-99.99,,,0.00,Acu-Link.com,2013-08-17 01:42:00,
2013-08-16 21:57:00,63.3,62.7,30.03,North,0,0.0,-999.0,98,-99.99,,,0.00,Acu-Link.com,2013-08-17 01:57:00,
2013-08-16 22:12:00,63.0,62.4,30.03,North,0,0.0,-999.0,98,-99.99,,,0.00,Acu-Link.com,2013-08-17 02:12:00,
2013-08-16 22:28:00,62.6,62.0,30.03,North,0,0.0,-999.0,98,-99.99,,,0.00,Acu-Link.com,2013-08-17 02:28:00,
2013-08-16 22:43:00,62.1,61.5,30.02,North,0,0.0,-999.0,98,-99.99,,,0.00,Acu-Link.com,2013-08-17 02:43:00,
2013-08-16 22:58:00,61.9,61.6,30.02,North,0,0.0,-999.0,99,-99.99,,,0.00,Acu-Link.com,2013-08-17 02:58:00,
2013-08-16 23:14:00,61.9,61.6,30.02,North,0,1.1,-999.0,99,-99.99,,,0.00,Acu-Link.com,2013-08-17 03:14:00,
2013-08-16 23:29:00,61.9,61.6,30.02,North,0,0.0,-999.0,99,-99.99,,,0.00,Acu-Link.com,2013-08-17 03:29:00,
2013-08-16 23:44:00,61.9,61.6,30.02,North,0,0.0,-999.0,99,-99.99,,,0.00,Acu-Link.com,2013-08-17 03:44:00,
2013-08-16 23:59:00,62.1,61.8,30.01,North,0,0.0,-999.0,99,-99.99,,,0.00,Acu-Link.com,2013-08-17 03:59:00,